Аэропорт: Полярный. Удачный

ICAO: UERP

METAR:
2021-04-21 19:00:00
UERP 211900Z 22002MPS CAVOK M11/M21 Q1020 R35/820550 NOSIG RMK QFE721
METAR:
2021-04-21 17:00:00
TAF UERP 211700Z 2118/2218 VRB01MPS 9999 SCT023 TEMPO 2121/2124 1000 BR VV003 BECMG 2200/2202 27005G10MPS TEMPO 2204/2212 4000 -SN BKN015